Time;durP1;ratioP1;P1;durP2;ratioP2;P2;SDS_P1;SDS_P2;PMS_P1;PMS_P2;Temp;Humidity;BMP_temperature;BMP_pressure;BME280_temperature;BME280_humidity;BME280_pressure;Samples;Min_cycle;Max_cycle;Signal;HPM_P1;HPM_P2
2023/01/08 00:01:16;;;;;;;;;;;24.30;90.80;;;;;;5072907;28;19977;-72
2023/01/08 00:03:42;;;;;;;;;;;24.10;91.20;;;;;;5070719;28;20264;-72
2023/01/08 00:06:14;;;;;;;;;;;24.30;91.40;;;;;;5052450;28;19913;-71
2023/01/08 00:08:41;;;;;;;;;;;24.40;90.90;;;;;;5052694;28;19955;-71
2023/01/08 00:11:07;;;;;;;;;;;24.30;90.20;;;;;;5052362;28;19972;-72
2023/01/08 00:13:34;;;;;;;;;;;24.30;90.50;;;;;;5052478;28;19909;-72
2023/01/08 00:16:04;;;;;;;;;;;24.30;90.50;;;;;;5052560;28;19905;-72
2023/01/08 00:18:31;;;;;;;;;;;24.30;90.10;;;;;;5087889;28;20304;-71
2023/01/08 00:20:58;;;;;;;;;;;24.00;90.50;;;;;;5081249;28;19908;-71
2023/01/08 00:23:25;;;;;;;;;;;24.00;90.10;;;;;;5092488;28;20003;-71
2023/01/08 00:25:51;;;;;;;;;;;24.00;89.90;;;;;;5078903;28;20099;-71
2023/01/08 00:28:19;;;;;;;;;;;24.10;89.60;;;;;;5072353;28;19908;-73
2023/01/08 00:30:46;;;;;;;;;;;24.20;89.90;;;;;;5075696;28;20432;-70
2023/01/08 00:33:13;;;;;;;;;;;24.30;88.50;;;;;;5080237;28;19924;-72
2023/01/08 00:35:40;;;;;;;;;;;24.30;89.30;;;;;;5091769;28;20028;-73
2023/01/08 00:38:07;;;;;;;;;;;24.30;88.40;;;;;;5086242;28;19916;-72
2023/01/08 00:40:34;;;;;;;;;;;24.50;88.10;;;;;;5076726;28;19919;-70
2023/01/08 00:43:01;;;;;;;;;;;24.60;87.40;;;;;;5080893;28;20006;-70
2023/01/08 00:45:28;;;;;;;;;;;24.70;87.50;;;;;;5075746;28;19923;-70
2023/01/08 00:47:58;;;;;;;;;;;24.90;86.60;;;;;;5062263;28;20283;-72
2023/01/08 00:50:25;;;;;;;;;;;25.10;86.40;;;;;;5070865;28;19912;-71
2023/01/08 00:52:52;;;;;;;;;;;25.30;86.50;;;;;;5069051;28;19921;-72
2023/01/08 00:55:18;;;;;;;;;;;25.20;85.40;;;;;;5067070;28;19932;-71
2023/01/08 00:57:45;;;;;;;;;;;25.20;85.00;;;;;;5075827;28;19909;-72
2023/01/08 01:00:13;;;;;;;;;;;25.20;85.00;;;;;;5057496;28;19955;-70
2023/01/08 01:02:40;;;;;;;;;;;25.20;85.00;;;;;;5057357;28;19991;-72
2023/01/08 01:05:08;;;;;;;;;;;25.50;85.10;;;;;;5059687;28;19952;-70
2023/01/08 01:07:35;;;;;;;;;;;25.80;84.20;;;;;;5063109;28;20290;-71
2023/01/08 01:10:02;;;;;;;;;;;26.00;83.80;;;;;;5055017;28;20388;-71
2023/01/08 01:12:29;;;;;;;;;;;26.10;83.80;;;;;;5057580;28;19979;-71
2023/01/08 01:14:55;;;;;;;;;;;26.20;83.60;;;;;;5055567;28;19940;-70
2023/01/08 01:17:22;;;;;;;;;;;26.50;82.00;;;;;;5066708;28;20404;-72
2023/01/08 01:19:48;;;;;;;;;;;26.40;82.20;;;;;;5057355;28;19920;-73
2023/01/08 01:22:15;;;;;;;;;;;26.30;81.90;;;;;;5057112;28;20009;-72
2023/01/08 01:24:42;;;;;;;;;;;26.30;83.00;;;;;;5067193;28;19958;-73
2023/01/08 01:27:08;;;;;;;;;;;26.30;82.60;;;;;;5061765;28;19996;-72
2023/01/08 01:29:35;;;;;;;;;;;26.30;83.80;;;;;;5057234;28;20007;-73
2023/01/08 01:32:02;;;;;;;;;;;26.40;83.30;;;;;;5053388;28;19921;-72
2023/01/08 01:34:28;;;;;;;;;;;26.50;83.20;;;;;;5062243;28;19919;-73
2023/01/08 01:36:55;;;;;;;;;;;26.50;84.40;;;;;;5055064;28;19921;-73
2023/01/08 01:39:22;;;;;;;;;;;26.60;83.20;;;;;;5057815;28;19990;-72
2023/01/08 01:41:49;;;;;;;;;;;26.70;82.40;;;;;;5073614;28;20003;-74
2023/01/08 01:44:33;;;;;;;;;;;26.90;82.60;;;;;;5073429;28;19909;-72
2023/01/08 01:47:23;;;;;;;;;;;26.90;81.60;;;;;;5073820;28;19909;-72
2023/01/08 01:49:53;;;;;;;;;;;26.80;80.80;;;;;;5074303;28;19909;-72
2023/01/08 01:52:21;;;;;;;;;;;26.80;80.70;;;;;;5074874;28;19917;-72
2023/01/08 01:54:49;;;;;;;;;;;26.80;82.00;;;;;;5074555;28;19916;-73
2023/01/08 01:57:15;;;;;;;;;;;26.90;82.50;;;;;;5074782;28;20292;-72
2023/01/08 01:59:42;;;;;;;;;;;27.10;82.00;;;;;;5074936;28;20336;-72
2023/01/08 02:02:09;;;;;;;;;;;27.20;80.70;;;;;;5073569;28;19908;-72
2023/01/08 02:04:35;;;;;;;;;;;27.20;80.50;;;;;;5074797;28;19916;-71
2023/01/08 02:07:20;;;;;;;;;;;27.20;81.70;;;;;;5074783;28;19909;-72
2023/01/08 02:09:50;;;;;;;;;;;27.20;81.50;;;;;;5074749;28;19908;-72
2023/01/08 02:12:22;;;;;;;;;;;27.10;81.10;;;;;;5074522;28;19920;-72
2023/01/08 02:15:07;;;;;;;;;;;27.10;80.80;;;;;;5074574;28;19918;-72
2023/01/08 02:17:41;;;;;;;;;;;27.20;80.90;;;;;;5074331;28;19991;-73
2023/01/08 02:20:10;;;;;;;;;;;27.30;80.60;;;;;;5074887;28;19908;-72
2023/01/08 02:22:40;;;;;;;;;;;27.40;80.50;;;;;;5074455;28;19909;-73
2023/01/08 02:25:12;;;;;;;;;;;27.50;80.50;;;;;;5074607;28;19942;-72
2023/01/08 02:27:41;;;;;;;;;;;27.50;80.60;;;;;;5074557;28;19908;-73
2023/01/08 02:30:09;;;;;;;;;;;27.50;82.80;;;;;;5074612;28;19909;-73
2023/01/08 02:32:39;;;;;;;;;;;27.70;80.10;;;;;;5074949;28;19963;-72
2023/01/08 02:35:07;;;;;;;;;;;27.90;79.90;;;;;;5074109;28;19958;-72
2023/01/08 02:37:34;;;;;;;;;;;28.00;79.00;;;;;;5074051;28;19973;-72
2023/01/08 02:40:04;;;;;;;;;;;27.90;80.00;;;;;;5074256;28;19909;-72
2023/01/08 02:42:34;;;;;;;;;;;27.70;80.20;;;;;;5074159;28;20426;-72
2023/01/08 02:45:07;;;;;;;;;;;27.80;80.30;;;;;;5073914;28;20003;-72
2023/01/08 02:47:53;;;;;;;;;;;27.90;81.10;;;;;;5073967;28;19916;-71
2023/01/08 02:50:20;;;;;;;;;;;28.00;80.10;;;;;;5073730;28;19915;-72
2023/01/08 02:53:01;;;;;;;;;;;28.20;79.70;;;;;;5074087;28;19921;-73
2023/01/08 02:55:29;;;;;;;;;;;28.30;79.50;;;;;;5074103;28;19912;-72
2023/01/08 02:57:56;;;;;;;;;;;28.60;78.60;;;;;;5073517;28;20276;-72
2023/01/08 03:00:23;;;;;;;;;;;28.80;79.80;;;;;;5073426;28;19913;-73
2023/01/08 03:02:51;;;;;;;;;;;28.80;77.50;;;;;;5073777;28;19908;-73
2023/01/08 03:05:23;;;;;;;;;;;29.10;77.40;;;;;;5073523;28;19931;-72
2023/01/08 03:07:50;;;;;;;;;;;29.30;76.90;;;;;;5073189;28;19915;-72
2023/01/08 03:10:18;;;;;;;;;;;29.90;74.80;;;;;;5073324;28;19955;-73
2023/01/08 03:12:45;;;;;;;;;;;30.10;74.80;;;;;;5073388;28;19916;-73
2023/01/08 03:15:13;;;;;;;;;;;30.70;75.10;;;;;;5073026;28;20003;-73
2023/01/08 03:17:43;;;;;;;;;;;31.50;71.90;;;;;;5072885;28;20281;-71
2023/01/08 03:20:13;;;;;;;;;;;32.10;71.40;;;;;;5073428;28;19961;-75
2023/01/08 03:22:41;;;;;;;;;;;32.30;71.30;;;;;;5073520;28;20350;-74
2023/01/08 03:25:09;;;;;;;;;;;32.60;70.60;;;;;;5073309;28;19912;-76
2023/01/08 03:27:39;;;;;;;;;;;33.00;69.80;;;;;;5071834;28;19978;-76
2023/01/08 03:30:07;;;;;;;;;;;33.50;70.00;;;;;;5072961;28;20418;-73
2023/01/08 03:32:34;;;;;;;;;;;34.40;68.10;;;;;;5073194;28;19916;-73
2023/01/08 03:35:02;;;;;;;;;;;34.80;69.60;;;;;;5069225;28;20422;-73
2023/01/08 03:37:32;;;;;;;;;;;35.10;68.80;;;;;;5072870;28;19921;-72
2023/01/08 03:40:19;;;;;;;;;;;36.10;66.50;;;;;;5073066;28;19908;-73
2023/01/08 03:42:45;;;;;;;;;;;36.20;64.90;;;;;;5072858;28;19954;-73
2023/01/08 03:45:12;;;;;;;;;;;36.10;64.20;;;;;;5073079;28;20429;-73
2023/01/08 03:47:40;;;;;;;;;;;36.00;64.30;;;;;;5072943;28;20364;-73
2023/01/08 03:50:08;;;;;;;;;;;36.60;62.60;;;;;;5073095;28;19909;-73
2023/01/08 03:52:35;;;;;;;;;;;36.80;66.10;;;;;;5072532;28;19916;-78
2023/01/08 03:55:02;;;;;;;;;;;37.60;61.60;;;;;;5073128;28;19908;-72
2023/01/08 03:57:28;;;;;;;;;;;37.30;61.20;;;;;;5072663;28;19962;-72
2023/01/08 03:59:55;;;;;;;;;;;37.30;60.40;;;;;;5072861;28;19908;-72
2023/01/08 04:02:22;;;;;;;;;;;38.00;61.40;;;;;;5072456;28;20353;-73
2023/01/08 04:04:48;;;;;;;;;;;37.90;59.80;;;;;;5072623;28;20007;-72
2023/01/08 04:07:15;;;;;;;;;;;37.60;60.30;;;;;;5072477;28;20376;-72
2023/01/08 04:09:41;;;;;;;;;;;37.70;61.00;;;;;;5072815;28;19915;-72
2023/01/08 04:12:08;;;;;;;;;;;38.10;61.20;;;;;;5072701;28;20018;-73
2023/01/08 04:14:35;;;;;;;;;;;38.40;59.20;;;;;;5072445;28;19912;-73
2023/01/08 04:17:01;;;;;;;;;;;38.30;59.90;;;;;;5072489;28;20273;-74
2023/01/08 04:19:28;;;;;;;;;;;37.80;59.70;;;;;;5072786;28;20043;-76
2023/01/08 04:21:55;;;;;;;;;;;37.80;59.10;;;;;;5072877;28;19909;-75
2023/01/08 04:24:21;;;;;;;;;;;37.20;59.50;;;;;;5072468;28;19912;-74
2023/01/08 04:26:48;;;;;;;;;;;36.80;59.70;;;;;;5075441;28;19935;-76
2023/01/08 04:29:15;;;;;;;;;;;37.20;59.90;;;;;;5062434;28;20003;-74
2023/01/08 04:31:41;;;;;;;;;;;36.90;60.30;;;;;;5063477;28;20289;-76
2023/01/08 04:34:09;;;;;;;;;;;37.60;59.10;;;;;;5056595;28;20412;-75
2023/01/08 04:36:35;;;;;;;;;;;38.00;59.20;;;;;;5056118;28;19921;-75
2023/01/08 04:39:02;;;;;;;;;;;38.20;59.10;;;;;;5056707;28;19915;-75
2023/01/08 04:41:29;;;;;;;;;;;38.10;58.30;;;;;;5056688;28;20411;-75
2023/01/08 04:43:56;;;;;;;;;;;37.20;61.50;;;;;;5056534;28;20432;-76
2023/01/08 04:46:22;;;;;;;;;;;37.30;59.10;;;;;;5055864;28;20007;-75
2023/01/08 04:48:49;;;;;;;;;;;37.10;59.60;;;;;;5056211;28;19908;-74
2023/01/08 04:51:16;;;;;;;;;;;37.00;59.30;;;;;;5056258;28;19917;-76
2023/01/08 04:53:42;;;;;;;;;;;37.60;59.30;;;;;;5056652;28;20259;-75
2023/01/08 04:56:10;;;;;;;;;;;37.50;58.80;;;;;;5055837;28;19909;-76
2023/01/08 04:58:37;;;;;;;;;;;37.30;59.10;;;;;;5056225;28;19939;-75
2023/01/08 05:01:11;;;;;;;;;;;37.60;60.60;;;;;;5056447;28;19944;-74
2023/01/08 05:03:38;;;;;;;;;;;37.30;59.10;;;;;;5057073;28;19916;-75
2023/01/08 05:06:05;;;;;;;;;;;37.10;59.20;;;;;;5057745;28;19909;-75
2023/01/08 05:08:32;;;;;;;;;;;37.50;58.30;;;;;;5061387;28;19963;-75
2023/01/08 05:10:59;;;;;;;;;;;37.50;58.40;;;;;;5057411;28;19916;-70
2023/01/08 05:13:25;;;;;;;;;;;37.40;57.60;;;;;;5056133;28;19916;-72
2023/01/08 05:15:52;;;;;;;;;;;38.00;57.70;;;;;;5055606;28;20360;-75
2023/01/08 05:18:19;;;;;;;;;;;37.50;58.20;;;;;;5056133;28;19916;-73
2023/01/08 05:20:45;;;;;;;;;;;37.60;58.40;;;;;;5055905;28;19909;-73
2023/01/08 05:23:12;;;;;;;;;;;37.40;58.20;;;;;;5054493;28;19915;-75
2023/01/08 05:25:39;;;;;;;;;;;37.70;56.80;;;;;;5055398;28;19992;-75
2023/01/08 05:28:05;;;;;;;;;;;37.70;57.50;;;;;;5055445;28;20344;-75
2023/01/08 05:30:32;;;;;;;;;;;37.80;59.60;;;;;;5055532;28;20324;-75
2023/01/08 05:33:00;;;;;;;;;;;36.40;58.60;;;;;;5055454;28;19920;-75
2023/01/08 05:35:26;;;;;;;;;;;35.70;59.70;;;;;;5055045;28;19913;-74
2023/01/08 05:37:53;;;;;;;;;;;36.00;58.70;;;;;;5054835;28;19913;-74
2023/01/08 05:40:20;;;;;;;;;;;36.00;58.40;;;;;;5055093;28;19963;-74
2023/01/08 05:42:46;;;;;;;;;;;36.70;58.50;;;;;;5055025;28;20311;-75
2023/01/08 05:45:15;;;;;;;;;;;36.60;59.60;;;;;;5055151;28;19909;-76
2023/01/08 05:47:42;;;;;;;;;;;36.80;58.80;;;;;;5055320;28;19908;-75
2023/01/08 05:50:08;;;;;;;;;;;36.50;58.70;;;;;;5055416;28;19913;-75
2023/01/08 05:52:35;;;;;;;;;;;36.40;60.20;;;;;;5055290;28;19917;-74
2023/01/08 05:55:02;;;;;;;;;;;36.20;59.30;;;;;;5055052;28;20289;-75
2023/01/08 05:57:28;;;;;;;;;;;35.80;61.20;;;;;;5054681;28;19909;-75
2023/01/08 05:59:55;;;;;;;;;;;35.00;61.00;;;;;;5055139;28;19916;-75
2023/01/08 06:02:22;;;;;;;;;;;34.10;63.00;;;;;;5055185;28;20011;-74
2023/01/08 06:04:48;;;;;;;;;;;33.60;63.50;;;;;;5054712;28;20067;-75
2023/01/08 06:07:15;;;;;;;;;;;33.10;65.30;;;;;;5054725;28;20042;-75
2023/01/08 06:09:41;;;;;;;;;;;32.80;65.20;;;;;;5054696;28;19962;-75
2023/01/08 06:12:08;;;;;;;;;;;32.10;65.60;;;;;;5054766;28;19917;-74
2023/01/08 06:14:35;;;;;;;;;;;31.70;67.50;;;;;;5054826;28;19931;-74
2023/01/08 06:17:01;;;;;;;;;;;31.10;68.20;;;;;;5054565;28;19913;-74
2023/01/08 06:19:28;;;;;;;;;;;30.70;68.50;;;;;;5054482;28;19909;-74
2023/01/08 06:21:55;;;;;;;;;;;30.30;69.70;;;;;;5054538;28;19971;-75
2023/01/08 06:24:22;;;;;;;;;;;29.50;71.70;;;;;;5054481;28;20328;-73
2023/01/08 06:26:48;;;;;;;;;;;28.90;72.20;;;;;;5054003;28;20000;-74
2023/01/08 06:29:15;;;;;;;;;;;28.50;74.00;;;;;;5054561;28;20007;-75
2023/01/08 06:31:42;;;;;;;;;;;28.60;73.90;;;;;;5056910;28;20016;-76
2023/01/08 06:34:08;;;;;;;;;;;28.50;75.10;;;;;;5063856;28;19924;-74
2023/01/08 06:36:35;;;;;;;;;;;28.10;74.90;;;;;;5053914;28;19928;-74
2023/01/08 06:39:01;;;;;;;;;;;28.20;73.80;;;;;;5054351;28;19913;-74
2023/01/08 06:41:28;;;;;;;;;;;28.00;75.60;;;;;;5054073;28;20258;-73
2023/01/08 06:43:55;;;;;;;;;;;28.00;73.90;;;;;;5052653;28;19909;-75
2023/01/08 06:46:21;;;;;;;;;;;28.00;73.80;;;;;;5053716;28;19909;-75
2023/01/08 06:48:48;;;;;;;;;;;27.70;73.50;;;;;;5053085;28;19962;-75
2023/01/08 06:51:14;;;;;;;;;;;27.40;76.60;;;;;;5053597;28;20357;-73
2023/01/08 06:53:41;;;;;;;;;;;27.70;74.40;;;;;;5053166;28;19916;-74
2023/01/08 06:56:09;;;;;;;;;;;27.90;74.10;;;;;;5053874;28;19972;-75
2023/01/08 06:58:37;;;;;;;;;;;28.00;71.70;;;;;;5053632;28;19951;-74
2023/01/08 07:01:04;;;;;;;;;;;28.00;72.60;;;;;;5053853;28;20289;-74
2023/01/08 07:03:31;;;;;;;;;;;28.10;73.70;;;;;;5053500;28;20289;-75
2023/01/08 07:05:57;;;;;;;;;;;27.80;74.60;;;;;;5053706;28;20379;-75
2023/01/08 07:08:24;;;;;;;;;;;27.60;75.10;;;;;;5053926;28;20008;-74
2023/01/08 07:10:51;;;;;;;;;;;27.40;76.80;;;;;;5053706;28;20409;-74
2023/01/08 07:13:17;;;;;;;;;;;27.10;76.40;;;;;;5053528;28;19963;-76
2023/01/08 07:15:44;;;;;;;;;;;27.20;74.70;;;;;;5053668;28;19954;-74
2023/01/08 07:18:11;;;;;;;;;;;27.20;75.20;;;;;;5053455;28;19909;-73
2023/01/08 07:20:38;;;;;;;;;;;27.30;75.50;;;;;;5053267;28;19913;-77
2023/01/08 07:23:06;;;;;;;;;;;27.40;75.20;;;;;;5053379;28;19909;-74
2023/01/08 07:25:32;;;;;;;;;;;27.20;76.30;;;;;;5053635;28;20342;-74
2023/01/08 07:28:00;;;;;;;;;;;27.10;76.30;;;;;;5053414;28;19944;-73
2023/01/08 07:30:27;;;;;;;;;;;27.00;76.50;;;;;;5053235;28;19908;-74
2023/01/08 07:32:57;;;;;;;;;;;26.80;76.90;;;;;;5052994;28;20353;-74
2023/01/08 07:35:23;;;;;;;;;;;26.90;77.80;;;;;;5052987;28;19912;-74
2023/01/08 07:37:50;;;;;;;;;;;26.80;77.30;;;;;;5052807;28;19917;-74
2023/01/08 07:40:17;;;;;;;;;;;26.80;78.40;;;;;;5053085;28;19948;-75
2023/01/08 07:42:43;;;;;;;;;;;26.80;77.80;;;;;;5052843;28;19909;-75
2023/01/08 07:45:10;;;;;;;;;;;26.60;76.90;;;;;;5052802;28;19916;-74
2023/01/08 07:47:37;;;;;;;;;;;26.60;77.70;;;;;;5052823;28;19909;-73
2023/01/08 07:50:04;;;;;;;;;;;26.50;78.50;;;;;;5052925;28;20350;-74
2023/01/08 07:52:30;;;;;;;;;;;26.50;78.40;;;;;;5052892;28;20266;-75
2023/01/08 07:54:57;;;;;;;;;;;26.40;79.00;;;;;;5051766;28;19919;-75
2023/01/08 07:57:23;;;;;;;;;;;26.30;78.60;;;;;;5052839;28;19912;-75
2023/01/08 07:59:50;;;;;;;;;;;26.20;79.20;;;;;;5052744;28;20416;-74
2023/01/08 08:02:17;;;;;;;;;;;26.00;79.40;;;;;;5052941;28;20008;-73
2023/01/08 08:04:43;;;;;;;;;;;25.80;80.30;;;;;;5052651;28;20384;-72
2023/01/08 08:07:10;;;;;;;;;;;25.40;81.40;;;;;;5052655;28;19964;-73
2023/01/08 08:09:37;;;;;;;;;;;25.20;82.10;;;;;;5051420;28;19951;-72
2023/01/08 08:12:03;;;;;;;;;;;25.30;82.50;;;;;;5052696;28;20027;-70
2023/01/08 08:14:30;;;;;;;;;;;25.10;82.10;;;;;;5052602;28;19916;-70
2023/01/08 08:16:57;;;;;;;;;;;25.10;82.90;;;;;;5052151;28;19909;-74
2023/01/08 08:19:23;;;;;;;;;;;24.90;83.30;;;;;;5052632;28;19974;-70
2023/01/08 08:21:50;;;;;;;;;;;24.80;83.40;;;;;;5052531;28;19909;-71
2023/01/08 08:24:16;;;;;;;;;;;24.50;83.90;;;;;;5052841;28;19913;-70
2023/01/08 08:26:43;;;;;;;;;;;24.50;84.00;;;;;;5052218;28;20324;-73
2023/01/08 08:29:10;;;;;;;;;;;24.50;84.40;;;;;;5052256;28;20001;-70
2023/01/08 08:31:36;;;;;;;;;;;24.40;85.00;;;;;;5052431;28;19936;-70
2023/01/08 08:34:03;;;;;;;;;;;24.40;85.50;;;;;;5055632;28;19924;-70
2023/01/08 08:36:30;;;;;;;;;;;24.30;85.70;;;;;;5072371;28;19975;-73
2023/01/08 08:38:57;;;;;;;;;;;24.20;86.00;;;;;;5072476;28;19921;-71
2023/01/08 08:41:23;;;;;;;;;;;24.20;86.90;;;;;;5072698;28;20400;-73
2023/01/08 08:43:50;;;;;;;;;;;24.10;86.80;;;;;;5072650;28;19908;-73
2023/01/08 08:46:17;;;;;;;;;;;24.00;87.40;;;;;;5072463;28;19912;-72
2023/01/08 08:48:47;;;;;;;;;;;23.90;88.10;;;;;;5073316;28;20250;-72
2023/01/08 08:51:13;;;;;;;;;;;23.70;89.00;;;;;;5073842;28;19909;-73
2023/01/08 08:53:40;;;;;;;;;;;23.50;89.50;;;;;;5086571;28;19904;-72
2023/01/08 08:56:07;;;;;;;;;;;23.40;89.80;;;;;;5092951;28;19924;-71
2023/01/08 08:58:33;;;;;;;;;;;23.40;90.00;;;;;;5073086;28;19969;-72
2023/01/08 09:01:01;;;;;;;;;;;23.40;90.20;;;;;;5072865;28;20777;-72
2023/01/08 09:03:28;;;;;;;;;;;23.30;90.50;;;;;;5072325;28;19915;-73
2023/01/08 09:05:54;;;;;;;;;;;23.30;90.60;;;;;;5071960;28;19977;-73
2023/01/08 09:08:21;;;;;;;;;;;23.20;90.70;;;;;;5072189;28;19909;-72
2023/01/08 09:10:47;;;;;;;;;;;23.10;90.40;;;;;;5071901;28;19909;-72
2023/01/08 09:13:14;;;;;;;;;;;23.00;90.70;;;;;;5075230;28;19917;-73
2023/01/08 09:15:41;;;;;;;;;;;23.00;91.00;;;;;;5075660;28;20349;-72
2023/01/08 09:18:07;;;;;;;;;;;23.00;91.10;;;;;;5075797;28;19955;-70
2023/01/08 09:20:34;;;;;;;;;;;22.90;91.00;;;;;;5075898;28;19931;-72
2023/01/08 09:23:02;;;;;;;;;;;22.90;91.00;;;;;;5075638;28;19909;-71
2023/01/08 09:25:29;;;;;;;;;;;22.80;90.90;;;;;;5075373;28;20426;-71
2023/01/08 09:28:06;;;;;;;;;;;22.80;90.90;;;;;;5075563;28;19909;-69
2023/01/08 09:30:33;;;;;;;;;;;22.60;91.40;;;;;;5075542;28;19961;-71
2023/01/08 09:33:00;;;;;;;;;;;22.60;91.50;;;;;;5075363;28;19917;-71
2023/01/08 09:35:27;;;;;;;;;;;22.60;91.70;;;;;;5073768;28;19913;-71
2023/01/08 09:37:55;;;;;;;;;;;22.70;92.10;;;;;;5075453;28;19912;-71
2023/01/08 09:40:23;;;;;;;;;;;22.60;91.80;;;;;;5075516;28;19956;-69
2023/01/08 09:42:53;;;;;;;;;;;22.50;92.30;;;;;;5075137;28;20003;-71
2023/01/08 09:45:40;;;;;;;;;;;22.40;92.40;;;;;;5075263;28;19908;-72
2023/01/08 09:48:13;;;;;;;;;;;22.40;92.40;;;;;;5074893;28;19947;-70
2023/01/08 09:50:40;;;;;;;;;;;22.40;92.40;;;;;;5075221;28;19912;-69
2023/01/08 09:53:11;;;;;;;;;;;22.40;92.60;;;;;;5075086;28;19921;-71
2023/01/08 09:55:39;;;;;;;;;;;22.30;92.60;;;;;;5074833;28;19943;-73
2023/01/08 09:58:13;;;;;;;;;;;22.30;92.60;;;;;;5073762;28;19962;-70
2023/01/08 10:00:39;;;;;;;;;;;22.20;93.30;;;;;;5075273;28;19909;-70
2023/01/08 10:03:10;;;;;;;;;;;22.20;92.90;;;;;;5075454;28;20008;-71
2023/01/08 10:05:39;;;;;;;;;;;22.20;93.60;;;;;;5074681;28;19916;-68
2023/01/08 10:08:06;;;;;;;;;;;22.20;93.60;;;;;;5074926;28;19916;-71
2023/01/08 10:10:33;;;;;;;;;;;22.10;93.80;;;;;;5073583;28;19962;-71
2023/01/08 10:13:00;;;;;;;;;;;22.10;94.00;;;;;;5074772;28;19916;-70
2023/01/08 10:15:28;;;;;;;;;;;22.00;93.80;;;;;;5074794;28;20351;-69
2023/01/08 10:18:05;;;;;;;;;;;21.80;94.20;;;;;;5074439;28;19940;-69
2023/01/08 10:20:32;;;;;;;;;;;21.80;94.70;;;;;;5074668;28;20003;-69
2023/01/08 10:23:10;;;;;;;;;;;21.80;95.00;;;;;;5073578;28;19908;-68
2023/01/08 10:25:47;;;;;;;;;;;21.70;95.20;;;;;;5074559;28;19908;-69
2023/01/08 10:28:39;;;;;;;;;;;21.70;95.50;;;;;;5074366;28;19999;-70
2023/01/08 10:31:14;;;;;;;;;;;21.80;96.00;;;;;;5074108;28;19962;-70
2023/01/08 10:33:42;;;;;;;;;;;21.70;95.90;;;;;;5073213;28;19920;-70
2023/01/08 10:36:10;;;;;;;;;;;21.70;96.00;;;;;;5070380;28;19966;-70
2023/01/08 10:38:55;;;;;;;;;;;21.80;96.30;;;;;;5074269;28;19908;-71
2023/01/08 10:41:22;;;;;;;;;;;21.70;96.30;;;;;;5074187;28;19909;-70
2023/01/08 10:44:06;;;;;;;;;;;21.60;96.20;;;;;;5074162;28;20365;-70
2023/01/08 10:46:40;;;;;;;;;;;21.60;96.90;;;;;;5073924;28;20353;-69
2023/01/08 10:49:13;;;;;;;;;;;21.60;96.70;;;;;;5074010;28;20289;-70
2023/01/08 10:51:47;;;;;;;;;;;21.50;97.00;;;;;;5074108;28;19913;-70
2023/01/08 10:54:23;;;;;;;;;;;21.50;97.30;;;;;;5068893;28;20369;-71
2023/01/08 10:56:50;;;;;;;;;;;21.50;97.60;;;;;;5053068;28;20319;-70
2023/01/08 10:59:20;;;;;;;;;;;21.50;97.80;;;;;;5053826;28;19909;-71
2023/01/08 11:01:48;;;;;;;;;;;21.40;97.60;;;;;;5053797;28;20331;-71
2023/01/08 11:04:34;;;;;;;;;;;21.30;98.20;;;;;;5053742;28;20054;-70
2023/01/08 11:07:02;;;;;;;;;;;21.30;98.20;;;;;;5053679;28;19938;-71
2023/01/08 11:09:33;;;;;;;;;;;21.20;98.20;;;;;;5053757;28;19944;-70
2023/01/08 11:12:00;;;;;;;;;;;21.10;98.80;;;;;;5053376;28;19917;-71
2023/01/08 11:14:33;;;;;;;;;;;21.10;99.20;;;;;;5053731;28;19919;-71
2023/01/08 11:17:01;;;;;;;;;;;21.00;99.60;;;;;;5053408;28;20250;-72
2023/01/08 11:19:34;;;;;;;;;;;21.10;99.80;;;;;;5053449;28;20285;-70
2023/01/08 11:22:01;;;;;;;;;;;21.00;99.90;;;;;;5053389;28;19962;-71
2023/01/08 11:24:29;;;;;;;;;;;21.00;99.90;;;;;;5053409;28;20004;-70
2023/01/08 11:26:59;;;;;;;;;;;21.00;99.90;;;;;;5053098;28;20042;-70
2023/01/08 11:29:30;;;;;;;;;;;20.90;99.90;;;;;;5053153;28;19916;-70
2023/01/08 11:31:59;;;;;;;;;;;20.90;99.90;;;;;;5058306;28;19920;-69
2023/01/08 11:34:48;;;;;;;;;;;20.80;99.90;;;;;;5072125;28;19908;-69
2023/01/08 11:37:21;;;;;;;;;;;20.80;99.90;;;;;;5072904;28;20388;-69
2023/01/08 11:39:48;;;;;;;;;;;20.80;99.90;;;;;;5073070;28;19990;-69
2023/01/08 11:42:20;;;;;;;;;;;20.80;99.90;;;;;;5073198;28;19908;-71
2023/01/08 11:45:04;;;;;;;;;;;20.70;99.90;;;;;;5072878;28;19912;-69
2023/01/08 11:47:37;;;;;;;;;;;20.60;99.90;;;;;;5072881;28;19916;-69
2023/01/08 11:50:22;;;;;;;;;;;20.60;99.90;;;;;;5073056;28;19954;-70
2023/01/08 11:52:55;;;;;;;;;;;20.60;99.90;;;;;;5072868;28;20277;-70
2023/01/08 11:55:24;;;;;;;;;;;20.40;99.90;;;;;;5072848;28;19916;-69
2023/01/08 11:58:11;;;;;;;;;;;20.40;99.90;;;;;;5072866;28;19940;-70
2023/01/08 12:00:46;;;;;;;;;;;20.40;99.90;;;;;;5071587;28;19915;-70
2023/01/08 12:03:30;;;;;;;;;;;20.40;99.90;;;;;;5073021;28;19916;-69
2023/01/08 12:06:06;;;;;;;;;;;20.40;99.90;;;;;;5072692;28;20266;-70
2023/01/08 12:08:35;;;;;;;;;;;20.30;99.90;;;;;;5072936;28;19909;-69
2023/01/08 12:11:14;;;;;;;;;;;20.30;99.90;;;;;;5072936;28;20065;-71
2023/01/08 12:13:47;;;;;;;;;;;20.30;99.90;;;;;;5072996;28;19917;-70
2023/01/08 12:16:31;;;;;;;;;;;20.20;99.90;;;;;;5072719;28;20399;-71
2023/01/08 12:19:09;;;;;;;;;;;20.20;99.90;;;;;;5072436;28;19909;-70
2023/01/08 12:21:42;;;;;;;;;;;20.20;99.90;;;;;;5072995;28;20273;-70
2023/01/08 12:24:09;;;;;;;;;;;20.10;99.90;;;;;;5072861;28;19916;-70
2023/01/08 12:26:44;;;;;;;;;;;20.20;99.90;;;;;;5072583;28;19915;-71
2023/01/08 12:29:18;;;;;;;;;;;20.10;99.90;;;;;;5072582;28;20343;-71
2023/01/08 12:31:50;;;;;;;;;;;20.10;99.90;;;;;;5072669;28;19912;-71
2023/01/08 12:34:36;;;;;;;;;;;20.10;99.90;;;;;;5072880;28;19966;-70
2023/01/08 12:37:11;;;;;;;;;;;20.00;99.90;;;;;;5059742;28;19966;-71
2023/01/08 12:39:45;;;;;;;;;;;20.10;99.90;;;;;;5057000;28;19913;-71
2023/01/08 12:42:16;;;;;;;;;;;20.00;99.90;;;;;;5055872;28;19915;-70
2023/01/08 12:44:44;;;;;;;;;;;20.00;99.90;;;;;;5053257;28;19909;-71
2023/01/08 12:47:15;;;;;;;;;;;19.90;99.90;;;;;;5054237;28;20328;-70
2023/01/08 12:49:50;;;;;;;;;;;19.90;99.90;;;;;;5056582;28;20002;-71
2023/01/08 12:52:25;;;;;;;;;;;19.80;99.90;;;;;;5056526;28;19924;-71
2023/01/08 12:55:02;;;;;;;;;;;19.80;99.90;;;;;;5056567;28;19909;-70
2023/01/08 12:57:29;;;;;;;;;;;19.80;99.90;;;;;;5056195;28;19912;-70
2023/01/08 13:00:21;;;;;;;;;;;19.80;99.90;;;;;;5056278;28;19915;-72
2023/01/08 13:02:54;;;;;;;;;;;19.80;99.90;;;;;;5055766;28;20441;-72
2023/01/08 13:05:20;;;;;;;;;;;19.80;99.90;;;;;;5054866;28;19916;-72
2023/01/08 13:07:55;;;;;;;;;;;19.70;99.90;;;;;;5056122;28;20758;-70
2023/01/08 13:10:28;;;;;;;;;;;19.60;99.90;;;;;;5056054;28;20004;-72
2023/01/08 13:12:56;;;;;;;;;;;19.60;99.90;;;;;;5055971;28;19917;-70
2023/01/08 13:15:25;;;;;;;;;;;19.60;99.90;;;;;;5055912;28;20387;-72
2023/01/08 13:17:53;;;;;;;;;;;19.60;99.90;;;;;;5055782;28;20000;-73
2023/01/08 13:20:27;;;;;;;;;;;19.60;99.90;;;;;;5056081;28;20039;-72
2023/01/08 13:22:58;;;;;;;;;;;19.50;99.90;;;;;;5055788;28;19908;-72
2023/01/08 13:25:25;;;;;;;;;;;19.50;99.90;;;;;;5055576;28;19952;-72
2023/01/08 13:27:51;;;;;;;;;;;19.50;99.90;;;;;;5055565;28;19908;-71
2023/01/08 13:30:39;;;;;;;;;;;19.50;99.90;;;;;;5055670;28;20429;-72
2023/01/08 13:33:23;;;;;;;;;;;19.40;99.90;;;;;;5055837;28;20476;-72
2023/01/08 13:35:50;;;;;;;;;;;19.40;99.90;;;;;;5054760;28;19963;-73
2023/01/08 13:38:18;;;;;;;;;;;19.30;99.90;;;;;;5073888;28;19912;-72
2023/01/08 13:40:44;;;;;;;;;;;19.30;99.90;;;;;;5075349;28;19993;-70
2023/01/08 13:43:14;;;;;;;;;;;19.30;99.90;;;;;;5075896;28;19908;-70
2023/01/08 13:45:41;;;;;;;;;;;19.30;99.90;;;;;;5075181;28;19908;-71
2023/01/08 13:48:24;;;;;;;;;;;19.30;99.90;;;;;;5075487;28;19961;-70
2023/01/08 13:50:51;;;;;;;;;;;19.30;99.90;;;;;;5075264;28;20281;-70
2023/01/08 13:53:19;;;;;;;;;;;19.20;99.90;;;;;;5074988;28;20377;-70
2023/01/08 13:55:53;;;;;;;;;;;19.30;99.90;;;;;;5071386;28;20399;-70
2023/01/08 13:58:24;;;;;;;;;;;19.20;99.90;;;;;;5074870;28;19935;-70
2023/01/08 14:00:52;;;;;;;;;;;19.20;99.90;;;;;;5075354;28;19939;-72
2023/01/08 14:03:22;;;;;;;;;;;19.20;99.90;;;;;;5075091;28;19931;-71
2023/01/08 14:05:50;;;;;;;;;;;19.10;99.90;;;;;;5074978;28;19916;-72
2023/01/08 14:08:23;;;;;;;;;;;19.10;99.90;;;;;;5074922;28;20380;-71
2023/01/08 14:10:51;;;;;;;;;;;19.10;99.90;;;;;;5074969;28;19908;-71
2023/01/08 14:13:18;;;;;;;;;;;19.00;99.90;;;;;;5074891;28;19924;-72
2023/01/08 14:15:45;;;;;;;;;;;19.00;99.90;;;;;;5074758;28;19959;-72
2023/01/08 14:18:13;;;;;;;;;;;19.00;99.90;;;;;;5074757;28;19912;-71
2023/01/08 14:20:41;;;;;;;;;;;19.00;99.90;;;;;;5074813;28;19908;-71
2023/01/08 14:23:12;;;;;;;;;;;18.90;99.90;;;;;;5074700;28;19912;-72
2023/01/08 14:25:42;;;;;;;;;;;18.90;99.90;;;;;;5074705;28;19954;-71
2023/01/08 14:28:15;;;;;;;;;;;18.90;99.90;;;;;;5074393;28;19909;-71